Time;durP1;ratioP1;P1;durP2;ratioP2;P2;SDS_P1;SDS_P2;PMS_P1;PMS_P2;Temp;Humidity;BMP_temperature;BMP_pressure;BME280_temperature;BME280_humidity;BME280_pressure;Samples;Min_cycle;Max_cycle;Signal;HPM_P1;HPM_P2
2023/10/02 00:02:11;;;;;;;8.57;3.10;;;17.00;99.90;;;17.32;100.00;101552.91;5306499;27;20441;-50
2023/10/02 00:04:45;;;;;;;8.45;3.17;;;16.90;99.90;;;17.32;100.00;101554.66;5288288;27;20398;-51
2023/10/02 00:07:25;;;;;;;7.85;2.92;;;17.00;99.90;;;17.32;100.00;101552.00;5288916;27;20135;-51
2023/10/02 00:09:57;;;;;;;8.10;2.75;;;17.00;99.90;;;17.30;100.00;101551.09;5290001;27;20509;-51
2023/10/02 00:12:31;;;;;;;7.50;2.83;;;16.90;99.90;;;17.28;100.00;101558.97;5298825;27;20581;-51
2023/10/02 00:15:12;;;;;;;7.38;2.95;;;16.90;99.90;;;17.28;100.00;101552.81;5294418;27;20051;-51
2023/10/02 00:17:44;;;;;;;;;;;16.90;99.90;;;17.29;100.00;101554.59;5288534;27;20079;-51
2023/10/02 00:20:21;;;;;;;6.65;2.65;;;16.90;99.90;;;17.28;100.00;101550.19;5281196;27;20006;-50
2023/10/02 00:22:55;;;;;;;11.55;2.80;;;16.90;99.90;;;17.27;100.00;101545.75;5291382;27;20148;-50
2023/10/02 00:25:27;;;;;;;7.40;2.83;;;16.90;99.90;;;17.24;100.00;101546.59;5287191;27;20301;-50
2023/10/02 00:28:00;;;;;;;8.20;2.97;;;16.90;99.90;;;17.26;100.00;101544.88;5295618;27;20126;-50
2023/10/02 00:30:36;;;;;;;8.60;3.30;;;16.90;99.90;;;17.31;100.00;101543.22;5288791;27;20059;-50
2023/10/02 00:33:11;;;;;;;10.95;3.20;;;16.90;99.90;;;17.34;100.00;101553.84;5287311;27;20126;-51
2023/10/02 00:35:51;;;;;;;11.05;3.65;;;17.00;99.90;;;17.36;100.00;101551.22;5287186;28;20110;-51
2023/10/02 00:38:25;;;;;;;9.02;3.22;;;17.00;99.90;;;17.35;100.00;101545.06;5286400;28;20039;-51
2023/10/02 00:41:02;;;;;;;7.80;3.13;;;17.00;99.90;;;17.33;100.00;101551.16;5290026;28;20046;-50
2023/10/02 00:43:33;;;;;;;9.55;3.60;;;17.00;99.90;;;17.30;100.00;101551.09;5296829;28;20094;-51
2023/10/02 00:46:06;;;;;;;6.15;2.78;;;17.00;99.90;;;17.28;100.00;101550.19;5282664;28;20059;-51
2023/10/02 00:48:49;;;;;;;9.98;3.20;;;16.90;99.90;;;17.23;100.00;101550.09;5287724;27;20055;-51
2023/10/02 00:51:21;;;;;;;7.68;3.13;;;16.90;99.90;;;17.20;100.00;101546.50;5290923;28;20065;-51
2023/10/02 00:54:23;;;;;;;7.78;2.83;;;16.90;99.90;;;17.15;100.00;101545.50;5290851;28;20052;-51
2023/10/02 00:56:47;;;;;;;8.95;3.03;;;16.80;99.90;;;17.08;100.00;101550.69;5293580;28;20059;-50
2023/10/02 00:59:23;;;;;;;8.80;3.30;;;16.80;99.90;;;17.02;100.00;101537.38;5297443;27;20078;-50
2023/10/02 01:01:56;;;;;;;8.95;3.40;;;16.70;99.90;;;16.99;100.00;101546.97;5294154;28;20510;-51
2023/10/02 01:04:34;;;;;;;9.75;3.40;;;16.70;99.90;;;16.99;100.00;101537.31;5284577;28;20051;-51
2023/10/02 01:07:11;;;;;;;8.02;3.10;;;16.60;99.90;;;16.99;100.00;101539.94;5283456;28;20052;-51
2023/10/02 01:10:07;;;;;;;8.65;3.17;;;16.70;99.90;;;17.01;100.00;101535.59;5298662;28;20051;-50
2023/10/02 01:12:44;;;;;;;8.55;3.00;;;16.70;99.90;;;17.01;100.00;101532.06;5298538;28;20071;-51
2023/10/02 01:15:19;;;;;;;9.07;3.25;;;16.70;99.90;;;16.97;100.00;101531.13;5305766;27;20130;-50
2023/10/02 01:17:53;;;;;;;10.75;3.63;;;16.60;99.90;;;16.94;100.00;101524.91;5295653;28;20066;-50
2023/10/02 01:20:35;;;;;;;8.77;3.42;;;16.60;99.90;;;16.91;100.00;101536.28;5295770;27;20050;-49
2023/10/02 01:23:17;;;;;;;8.00;2.72;;;16.60;99.90;;;16.88;100.00;101538.81;5289958;27;20054;-51
2023/10/02 01:25:56;;;;;;;7.88;3.20;;;16.60;99.90;;;16.86;100.00;101537.03;5289412;27;20053;-50
2023/10/02 01:28:49;;;;;;;7.57;3.00;;;16.50;99.90;;;16.82;100.00;101546.59;5301882;27;20514;-50
2023/10/02 01:31:41;;;;;;;8.15;3.03;;;16.50;99.90;;;16.77;100.00;101537.72;5296699;27;20108;-50
2023/10/02 01:34:33;;;;;;;9.88;3.25;;;16.50;99.90;;;16.75;100.00;101544.69;5291394;27;20703;-51
2023/10/02 01:37:32;;;;;;;7.18;2.78;;;16.40;99.90;;;16.70;100.00;101549.00;5292244;27;20088;-51
2023/10/02 01:42:47;;;;;;;8.82;3.33;;;16.30;99.90;;;16.62;100.00;101537.34;5293806;27;20111;-52
2023/10/02 01:45:23;;;;;;;9.75;3.33;;;16.30;99.90;;;16.59;100.00;101542.56;5292672;27;20490;-50
2023/10/02 01:47:55;;;;;;;8.90;3.20;;;16.30;99.90;;;16.55;100.00;101541.59;5296938;27;20052;-50
2023/10/02 01:50:30;;;;;;;8.68;3.55;;;16.20;99.90;;;16.52;100.00;101546.81;5303085;27;20440;-50
2023/10/02 01:53:06;;;;;;;;;;;16.20;99.90;;;16.46;100.00;101537.03;5296197;27;20418;-50
2023/10/02 01:55:40;;;;;;;9.73;3.33;;;16.20;99.90;;;16.44;100.00;101544.00;5287946;27;19926;-51
2023/10/02 01:58:20;;;;;;;9.80;3.38;;;16.20;99.90;;;16.43;100.00;101539.59;5291655;27;20505;-50
2023/10/02 02:00:52;;;;;;;8.27;2.75;;;16.10;99.90;;;16.40;100.00;101539.50;5295312;27;20035;-50
2023/10/02 02:03:28;;;;;;;8.40;3.15;;;16.10;99.90;;;16.38;100.00;101537.72;5289486;27;20047;-50
2023/10/02 02:06:08;;;;;;;9.23;3.20;;;16.10;99.90;;;16.35;100.00;101533.25;5303123;27;20085;-51
2023/10/02 02:08:43;;;;;;;8.32;3.15;;;16.10;99.90;;;16.31;100.00;101541.94;5299790;27;20051;-50
2023/10/02 02:11:21;;;;;;;;;;;16.00;99.90;;;16.25;100.00;101526.00;5297860;27;20031;-51
2023/10/02 02:13:58;;;;;;;8.77;3.13;;;16.00;99.90;;;16.22;100.00;101526.81;5298004;27;20006;-51
2023/10/02 02:16:34;;;;;;;9.43;3.70;;;16.00;99.90;;;16.22;100.00;101531.19;5286517;27;20043;-50
2023/10/02 02:19:07;;;;;;;8.93;3.22;;;15.90;99.90;;;16.21;100.00;101524.16;5297798;27;20055;-50
2023/10/02 02:21:40;;;;;;;8.32;2.92;;;15.90;99.90;;;16.20;100.00;101531.16;5303167;27;20170;-50
2023/10/02 02:24:12;;;;;;;7.00;2.97;;;15.90;99.90;;;16.18;100.00;101532.00;5290401;27;20052;-51
2023/10/02 02:26:45;;;;;;;7.72;2.63;;;15.90;99.90;;;16.17;100.00;101532.81;5300030;27;20053;-50
2023/10/02 02:29:23;;;;;;;8.80;2.90;;;15.90;99.90;;;16.13;100.00;101538.88;5290380;27;20050;-50
2023/10/02 02:31:56;;;;;;;10.00;3.28;;;15.80;99.90;;;16.08;100.00;101528.25;5286468;27;20052;-49
2023/10/02 02:34:28;;;;;;;7.50;3.03;;;15.80;99.90;;;16.04;100.00;101523.78;5304038;27;20516;-51
2023/10/02 02:37:01;;;;;;;8.13;2.70;;;15.80;99.90;;;16.05;100.00;101522.03;5309313;27;20054;-52
2023/10/02 02:39:37;;;;;;;9.10;2.95;;;15.70;99.90;;;16.02;100.00;101523.72;5289432;27;20052;-51
2023/10/02 02:42:09;;;;;;;7.70;2.78;;;15.70;99.90;;;16.04;100.00;101528.13;5295827;27;20043;-51
2023/10/02 02:44:46;;;;;;;8.35;3.08;;;15.70;99.90;;;16.07;100.00;101520.31;5290268;27;20097;-50
2023/10/02 02:47:21;;;;;;;9.13;3.33;;;15.80;99.90;;;16.08;100.00;101522.97;5286124;27;20043;-50
2023/10/02 02:49:58;;;;;;;9.98;3.38;;;15.80;99.90;;;16.11;100.00;101527.44;5298972;27;20591;-51
2023/10/02 02:52:32;;;;;;;8.70;3.30;;;15.80;99.90;;;16.13;100.00;101520.47;5292592;27;20039;-50
2023/10/02 02:55:12;;;;;;;9.77;3.25;;;15.80;99.90;;;16.13;100.00;101517.84;5308090;27;20160;-51
2023/10/02 02:57:46;;;;;;;9.88;3.45;;;15.80;99.90;;;16.10;100.00;101530.91;5297585;27;20089;-52
2023/10/02 03:00:29;;;;;;;8.93;3.30;;;15.80;99.90;;;16.08;100.00;101527.34;5289193;27;20071;-51
2023/10/02 03:03:03;;;;;;;8.80;2.97;;;15.80;99.90;;;16.05;100.00;101524.66;5294584;27;20133;-50
2023/10/02 03:05:38;;;;;;;8.18;2.60;;;15.80;99.90;;;16.00;100.00;101530.69;5289616;27;20036;-50
2023/10/02 03:08:11;;;;;;;;;;;15.70;99.90;;;15.97;100.00;101521.81;5293493;27;20443;-50
2023/10/02 03:10:47;;;;;;;7.15;2.72;;;15.70;99.90;;;15.94;100.00;101527.03;5296743;27;20259;-50
2023/10/02 03:13:19;;;;;;;7.53;2.85;;;15.70;99.90;;;15.92;100.00;101521.72;5298298;27;20092;-51
2023/10/02 03:15:53;;;;;;;6.20;2.65;;;15.60;99.90;;;15.89;100.00;101516.38;5294443;27;20054;-50
2023/10/02 03:18:31;;;;;;;7.55;3.20;;;15.60;99.90;;;15.88;100.00;101514.59;5300039;27;20112;-50
2023/10/02 03:21:14;;;;;;;9.68;3.00;;;15.60;99.90;;;15.88;100.00;101517.22;5295970;27;20041;-50
2023/10/02 03:23:46;;;;;;;9.35;3.42;;;15.60;99.90;;;15.89;100.00;101512.88;5302966;27;20059;-51
2023/10/02 03:26:37;;;;;;;8.23;2.88;;;15.60;99.90;;;15.87;100.00;101512.84;5289750;27;20455;-50
2023/10/02 03:29:16;;;;;;;8.80;3.15;;;15.60;99.90;;;15.86;100.00;101513.69;5293594;27;20162;-51
2023/10/02 03:31:50;;;;;;;8.57;3.10;;;15.60;99.90;;;15.84;100.00;101512.75;5286883;27;20558;-50
2023/10/02 03:34:27;;;;;;;7.75;3.03;;;15.60;99.90;;;15.84;100.00;101506.59;5293603;27;20401;-50
2023/10/02 03:37:08;;;;;;;8.25;3.20;;;15.60;99.90;;;15.82;100.00;101503.94;5288505;27;20039;-51
2023/10/02 03:40:00;;;;;;;8.43;2.80;;;15.50;99.90;;;15.78;100.00;101507.38;5290590;27;20050;-51
2023/10/02 03:42:32;;;;;;;7.20;3.28;;;15.50;99.90;;;15.72;100.00;101502.84;5285576;27;20308;-52
2023/10/02 03:45:07;;;;;;;9.07;3.30;;;15.50;99.90;;;15.71;100.00;101498.44;5287986;27;20081;-51
2023/10/02 03:47:41;;;;;;;9.93;2.97;;;15.40;99.90;;;15.68;100.00;101497.47;5290637;27;20593;-50
2023/10/02 03:50:14;;;;;;;10.10;3.20;;;15.40;99.90;;;15.65;100.00;101495.66;5297321;27;20035;-50
2023/10/02 03:53:12;;;;;;;9.35;3.15;;;15.40;99.90;;;15.63;100.00;101499.06;5289509;27;20528;-50
2023/10/02 03:55:39;;;;;;;8.68;3.10;;;15.40;99.90;;;15.61;100.00;101488.50;5287842;27;20043;-51
2023/10/02 03:58:12;;;;;;;9.93;3.35;;;15.40;99.90;;;15.60;100.00;101486.72;5299281;27;20043;-51
2023/10/02 04:00:46;;;;;;;7.95;3.20;;;15.30;99.90;;;15.58;100.00;101487.50;5287931;27;20040;-50
2023/10/02 04:03:19;;;;;;;7.45;3.10;;;15.30;99.90;;;15.56;100.00;101489.22;5301390;27;20048;-50
2023/10/02 04:05:52;;;;;;;8.05;3.00;;;15.30;99.90;;;15.56;100.00;101494.47;5289593;27;20039;-49
2023/10/02 04:08:36;;;;;;;7.28;2.92;;;15.30;99.90;;;15.55;100.00;101495.34;5290772;27;20062;-51
2023/10/02 04:11:09;;;;;;;8.48;3.05;;;15.30;99.90;;;15.53;100.00;101487.41;5293782;27;20055;-51
2023/10/02 04:13:45;;;;;;;8.60;3.15;;;15.30;99.90;;;15.52;100.00;101495.25;5295857;27;20236;-50
2023/10/02 04:16:29;;;;;;;9.70;3.17;;;15.30;99.90;;;15.50;100.00;101489.06;5285333;27;20047;-51
2023/10/02 04:19:03;;;;;;;9.70;3.20;;;15.30;99.90;;;15.47;100.00;101490.78;5298871;27;20046;-50
2023/10/02 04:21:42;;;;;;;9.50;3.25;;;15.20;99.90;;;15.47;100.00;101490.78;5286391;27;20122;-50
2023/10/02 04:24:14;;;;;;;10.30;3.58;;;15.20;99.90;;;15.44;100.00;101493.31;5290923;27;20043;-51
2023/10/02 04:26:53;;;;;;;8.18;3.28;;;15.20;99.90;;;15.42;100.00;101487.13;5292069;27;20035;-50
2023/10/02 04:29:28;;;;;;;8.65;2.80;;;15.20;99.90;;;15.41;100.00;101481.84;5291869;27;20047;-50
2023/10/02 04:32:14;;;;;;;8.57;3.30;;;15.20;99.90;;;15.41;100.00;101485.34;5292287;27;20035;-50
2023/10/02 04:34:50;;;;;;;8.00;3.33;;;15.20;99.90;;;15.41;100.00;101484.47;5288158;27;20051;-50
2023/10/02 04:37:23;;;;;;;7.38;2.95;;;15.20;99.90;;;15.40;100.00;101486.22;5292069;27;20054;-50
2023/10/02 04:40:14;;;;;;;7.43;3.05;;;15.10;99.90;;;15.39;100.00;101484.44;5292402;28;20035;-50
2023/10/02 04:43:09;;;;;;;7.72;3.10;;;15.10;99.90;;;15.40;100.00;101480.06;5303086;27;20043;-50
2023/10/02 04:45:44;;;;;;;8.00;3.10;;;15.20;99.90;;;15.41;100.00;101468.72;5287464;28;20048;-51
2023/10/02 04:48:16;;;;;;;8.27;2.78;;;15.10;99.90;;;15.42;100.00;101470.47;5291314;28;20051;-51
2023/10/02 04:50:53;;;;;;;7.35;2.63;;;15.20;99.90;;;15.41;100.00;101469.59;5300270;28;20048;-51
2023/10/02 04:53:25;;;;;;;9.65;3.10;;;15.20;99.90;;;15.42;100.00;101468.75;5292818;27;20430;-50
2023/10/02 04:56:21;;;;;;;9.27;3.40;;;15.20;99.90;;;15.42;100.00;101474.00;5296815;27;20047;-50
2023/10/02 04:58:57;;;;;;;8.25;2.88;;;15.10;99.90;;;15.45;100.00;101470.53;5293317;27;20510;-50
2023/10/02 05:01:29;;;;;;;9.80;3.40;;;15.20;99.90;;;15.45;100.00;101474.09;5294130;27;20548;-50
2023/10/02 05:04:03;;;;;;;7.55;3.05;;;15.20;99.90;;;15.45;100.00;101471.47;5290620;27;20516;-51
2023/10/02 05:06:52;;;;;;;9.93;2.95;;;15.20;99.90;;;15.45;100.00;101465.28;5292945;27;20096;-50
2023/10/02 05:09:26;;;;;;;9.50;4.00;;;15.20;99.90;;;15.43;100.00;101473.13;5304177;27;20131;-51
2023/10/02 05:12:03;;;;;;;8.05;2.78;;;15.20;99.90;;;15.42;100.00;101467.84;5292861;27;20039;-50
2023/10/02 05:14:51;;;;;;;8.73;3.53;;;15.20;99.90;;;15.40;100.00;101467.81;5290505;27;20047;-51
2023/10/02 05:20:15;;;;;;;7.93;3.00;;;15.10;99.90;;;15.37;100.00;101472.97;5294426;27;20058;-51
2023/10/02 05:22:58;;;;;;;8.68;3.40;;;15.10;99.90;;;15.33;100.00;101468.50;5292228;27;20043;-51
2023/10/02 05:25:33;;;;;;;9.63;3.10;;;15.10;99.90;;;15.31;100.00;101475.44;5301336;27;20899;-51
2023/10/02 05:28:05;;;;;;;;;;;15.10;99.90;;;15.28;100.00;101478.00;5296228;27;20043;-50
2023/10/02 05:30:43;;;;;;;7.65;2.92;;;15.10;99.90;;;15.26;100.00;101479.72;5299421;27;19981;-50
2023/10/02 05:33:36;;;;;;;8.82;3.15;;;15.00;99.90;;;15.24;100.00;101475.25;5300325;27;20126;-50
2023/10/02 05:36:09;;;;;;;7.55;2.72;;;15.00;99.90;;;15.20;100.00;101482.19;5302123;27;20054;-51
2023/10/02 05:39:24;;;;;;;8.13;3.22;;;15.00;99.90;;;15.16;100.00;101472.41;5289891;27;20047;-49
2023/10/02 05:41:44;;;;;;;8.60;3.13;;;14.90;99.90;;;15.14;100.00;101479.38;5299261;27;20044;-51
2023/10/02 05:44:23;;;;;;;8.00;3.13;;;14.90;99.90;;;15.13;100.00;101480.22;5311896;27;20414;-50
2023/10/02 05:47:05;;;;;;;9.48;3.20;;;14.90;99.90;;;15.12;100.00;101475.81;5300345;27;20066;-51
2023/10/02 05:49:43;;;;;;;8.85;3.30;;;14.90;99.90;;;15.11;100.00;101487.16;5298887;27;20138;-50
2023/10/02 05:52:18;;;;;;;9.27;3.08;;;14.90;99.90;;;15.11;100.00;101484.53;5301150;27;20089;-50
2023/10/02 05:54:54;;;;;;;9.85;3.13;;;14.90;99.90;;;15.11;100.00;101480.16;5297750;27;20127;-50
2023/10/02 05:57:31;;;;;;;7.97;3.40;;;14.90;99.90;;;15.12;100.00;101481.94;5293573;27;20043;-49
2023/10/02 06:00:16;;;;;;;9.02;3.28;;;14.90;99.90;;;15.14;100.00;101488.16;5289407;27;20150;-51
2023/10/02 06:02:58;;;;;;;10.95;3.65;;;14.90;99.90;;;15.17;100.00;101495.22;5295170;27;20122;-51
2023/10/02 06:05:31;;;;;;;8.73;3.53;;;14.90;99.90;;;15.19;100.00;101497.03;5296520;27;20051;-49
2023/10/02 06:08:16;;;;;;;11.68;3.72;;;14.90;99.90;;;15.22;100.00;101501.47;5289684;27;20040;-49
2023/10/02 06:11:08;;;;;;;8.85;3.50;;;15.00;99.90;;;15.24;100.00;101507.66;5300205;27;20047;-50
2023/10/02 06:13:41;;;;;;;9.40;3.25;;;15.00;99.90;;;15.26;100.00;101511.22;5308835;27;20079;-50
2023/10/02 06:16:14;;;;;;;9.80;3.20;;;15.00;99.90;;;15.29;100.00;101510.41;5295939;27;20047;-49
2023/10/02 06:18:46;;;;;;;9.05;3.05;;;15.10;99.90;;;15.34;100.00;101508.81;5298396;27;20398;-50
2023/10/02 06:21:19;;;;;;;10.55;3.80;;;15.10;99.90;;;15.38;100.00;101515.91;5290657;27;20121;-50
2023/10/02 06:23:52;;;;;;;9.25;3.15;;;15.20;99.90;;;15.43;100.00;101509.91;5299287;27;20046;-50
2023/10/02 06:26:30;;;;;;;7.65;3.35;;;15.20;99.90;;;15.50;100.00;101510.09;5293986;27;20414;-50
2023/10/02 06:29:16;;;;;;;9.85;3.42;;;15.20;99.90;;;15.57;100.00;101512.91;5303394;27;20071;-50
2023/10/02 06:31:51;;;;;;;9.98;3.70;;;15.30;99.90;;;15.65;100.00;101514.06;5298841;27;20048;-49
2023/10/02 06:34:25;;;;;;;9.65;3.60;;;15.40;99.90;;;15.75;100.00;101512.53;5301429;27;20123;-49
2023/10/02 06:37:07;;;;;;;9.63;3.90;;;15.50;99.90;;;15.85;100.00;101508.41;5294388;27;20094;-51
2023/10/02 06:39:42;;;;;;;9.80;4.00;;;15.60;99.90;;;16.02;100.00;101517.56;5297361;27;20074;-54
2023/10/02 06:42:17;;;;;;;10.98;4.95;;;15.70;99.90;;;16.21;100.00;101524.16;5290523;27;20502;-51
2023/10/02 06:44:55;;;;;;;11.20;4.30;;;15.90;99.90;;;16.42;100.00;101511.47;5287708;27;20043;-49
2023/10/02 06:47:29;;;;;;;14.27;4.60;;;16.10;99.90;;;16.76;100.00;101520.16;5297950;27;20051;-54
2023/10/02 06:50:04;;;;;;;12.18;4.78;;;16.40;99.90;;;17.10;100.00;101519.09;5298972;27;20042;-51
2023/10/02 06:52:36;;;;;;;14.05;4.50;;;16.70;99.90;;;17.43;100.00;101521.47;5304575;27;20051;-51
2023/10/02 06:55:11;;;;;;;13.25;4.68;;;17.00;99.90;;;17.78;100.00;101518.59;5291781;27;20561;-50
2023/10/02 06:57:52;;;;;;;12.60;4.60;;;17.30;99.90;;;18.14;100.00;101511.28;5288944;27;20054;-49
2023/10/02 07:00:36;;;;;;;12.27;4.15;;;17.70;99.90;;;18.48;100.00;101513.53;5293654;27;20058;-49
2023/10/02 07:03:08;;;;;;;10.57;3.95;;;18.00;99.90;;;18.81;100.00;101516.63;5291680;27;20444;-48
2023/10/02 07:05:42;;;;;;;12.13;4.03;;;18.30;99.90;;;19.10;100.00;101511.69;5311244;27;20039;-49
2023/10/02 07:08:21;;;;;;;10.15;3.80;;;18.60;99.90;;;19.37;100.00;101510.22;5290495;27;20062;-49
2023/10/02 07:10:57;;;;;;;11.95;4.60;;;18.90;99.90;;;19.67;100.00;101518.47;5297100;27;20048;-49
2023/10/02 07:13:31;;;;;;;12.65;5.13;;;19.10;99.90;;;19.94;100.00;101519.56;5297404;27;20107;-51
2023/10/02 07:16:05;;;;;;;12.05;4.28;;;19.40;99.90;;;20.07;100.00;101524.06;5297411;27;20510;-50
2023/10/02 07:18:45;;;;;;;11.43;4.38;;;19.60;99.90;;;20.17;100.00;101517.09;5308879;27;20048;-50
2023/10/02 07:21:19;;;;;;;13.38;4.10;;;19.70;99.90;;;20.25;100.00;101518.91;5311092;27;20050;-50
2023/10/02 07:23:52;;;;;;;12.40;4.97;;;19.80;99.90;;;20.29;100.00;101520.72;5295629;27;20044;-51
2023/10/02 07:26:49;;;;;;;13.57;4.82;;;19.90;99.90;;;20.37;100.00;101520.75;5298297;27;20392;-50
2023/10/02 07:29:19;;;;;;;11.35;4.32;;;19.90;99.90;;;20.44;100.00;101517.28;5291912;27;20075;-51
2023/10/02 07:31:54;;;;;;;12.30;4.35;;;20.00;99.90;;;20.56;100.00;101512.06;5298916;27;20135;-49
2023/10/02 07:34:27;;;;;;;11.68;4.45;;;20.10;99.90;;;20.67;100.00;101504.19;5289140;27;20304;-52
2023/10/02 07:36:59;;;;;;;10.93;3.88;;;20.20;99.90;;;20.79;100.00;101514.81;5303462;27;20051;-49
2023/10/02 07:39:36;;;;;;;10.70;3.72;;;20.30;99.90;;;20.90;100.00;101511.34;5288876;27;20413;-51
2023/10/02 07:42:11;;;;;;;10.55;4.03;;;20.40;99.90;;;21.03;100.00;101513.16;5292736;27;20439;-50
2023/10/02 07:44:45;;;;;;;10.68;4.35;;;20.50;99.90;;;21.11;100.00;101514.06;5289262;27;20550;-48
2023/10/02 07:47:18;;;;;;;12.43;3.72;;;20.60;99.90;;;21.13;100.00;101510.53;5300948;27;20522;-49
2023/10/02 07:49:58;;;;;;;11.27;4.13;;;20.60;99.90;;;21.21;100.00;101507.03;5308885;27;20515;-51
2023/10/02 07:52:35;;;;;;;11.50;4.10;;;20.60;99.90;;;21.27;100.00;101502.63;5300733;27;20255;-50
2023/10/02 07:55:10;;;;;;;11.18;4.10;;;20.60;99.90;;;21.39;100.00;101518.59;5285217;27;20047;-51
2023/10/02 07:57:42;;;;;;;8.90;3.78;;;20.60;99.90;;;21.50;100.00;101523.00;5291619;27;20039;-49
2023/10/02 08:03:04;;;;;;;12.02;4.35;;;20.80;99.90;;;21.83;100.00;101515.06;5305835;27;20494;-50
2023/10/02 08:05:38;;;;;;;10.15;3.80;;;20.90;99.90;;;22.07;100.00;101515.94;5304619;27;20490;-49
2023/10/02 08:08:11;;;;;;;10.93;4.40;;;21.10;99.90;;;22.36;100.00;101515.91;5296380;27;20047;-50
2023/10/02 08:10:50;;;;;;;11.00;4.18;;;21.30;99.90;;;22.57;99.98;101515.00;5314009;27;20054;-50
2023/10/02 08:13:32;;;;;;;10.93;4.22;;;21.40;99.90;;;22.90;98.64;101514.03;5290128;27;20035;-49
2023/10/02 08:16:12;;;;;;;13.93;4.72;;;21.60;99.90;;;23.31;96.71;101516.44;5292535;27;20151;-49
2023/10/02 08:18:58;;;;;;;12.85;4.57;;;21.90;99.90;;;23.89;95.25;101510.72;5284723;27;20047;-50
2023/10/02 08:21:46;;;;;;;11.35;4.35;;;22.20;99.90;;;24.73;92.02;101508.97;5311819;27;20062;-49
2023/10/02 08:24:18;;;;;;;13.57;4.88;;;22.80;99.90;;;25.63;88.23;101518.41;5301129;27;20045;-49
2023/10/02 08:26:56;;;;;;;11.48;4.57;;;23.60;99.90;;;26.02;85.49;101505.28;5291559;27;20096;-51
2023/10/02 08:29:29;;;;;;;12.90;4.82;;;24.10;99.20;;;26.16;83.98;101514.84;5300982;27;20047;-49
2023/10/02 08:32:06;;;;;;;10.85;4.22;;;24.40;98.50;;;26.40;83.60;101512.63;5287672;27;20494;-49
2023/10/02 08:34:39;;;;;;;12.57;4.35;;;24.70;97.80;;;26.62;82.75;101508.63;5289036;27;20043;-48
2023/10/02 08:37:12;;;;;;;11.02;4.50;;;24.90;97.30;;;26.66;82.15;101504.97;5288747;27;20570;-49
2023/10/02 08:39:46;;;;;;;12.63;4.65;;;25.10;96.70;;;26.69;81.72;101502.25;5288698;27;20535;-49
2023/10/02 08:42:24;;;;;;;13.00;5.22;;;25.20;96.30;;;26.45;81.17;101503.59;5292714;27;20035;-49
2023/10/02 08:45:00;;;;;;;11.75;4.72;;;25.10;95.50;;;26.12;81.48;101498.88;5298980;27;20044;-49
2023/10/02 08:47:35;;;;;;;12.50;4.50;;;25.00;95.30;;;25.85;82.40;101500.25;5290803;28;20061;-50
2023/10/02 08:50:10;;;;;;;13.60;5.40;;;24.90;95.30;;;25.57;82.95;101495.34;5291322;28;20688;-49
2023/10/02 08:52:50;;;;;;;11.35;4.15;;;24.70;95.30;;;25.42;84.56;101488.44;5302326;28;20047;-48
2023/10/02 08:55:35;;;;;;;11.15;4.65;;;24.60;95.80;;;25.33;85.57;101487.72;5299721;28;20487;-49
2023/10/02 08:58:16;;;;;;;14.25;4.57;;;24.50;96.00;;;25.17;85.63;101481.75;5300302;27;20116;-49
2023/10/02 09:04:22;;;;;;;11.10;4.53;;;24.30;96.10;;;24.95;86.76;101478.44;5249463;28;20131;-49
2023/10/02 09:06:59;;;;;;;11.23;4.35;;;24.30;96.20;;;24.86;87.08;101481.25;5257756;28;20131;-49
2023/10/02 09:09:36;;;;;;;11.60;4.35;;;24.20;96.30;;;24.94;87.20;101470.47;5278545;28;20055;-50
2023/10/02 09:12:15;;;;;;;13.43;4.53;;;24.20;96.50;;;25.04;86.90;101481.03;5297015;28;20043;-49
2023/10/02 09:14:51;;;;;;;17.05;4.85;;;24.30;96.30;;;25.13;86.45;101491.56;5285002;28;20410;-49
2023/10/02 09:17:24;;;;;;;13.20;4.88;;;24.30;96.20;;;25.18;85.66;101475.50;5290767;28;20413;-49
2023/10/02 09:20:03;;;;;;;13.10;4.60;;;24.40;95.80;;;25.30;86.10;101490.41;5286802;28;20062;-50
2023/10/02 09:22:38;;;;;;;12.95;4.85;;;24.50;96.00;;;25.36;86.68;101477.00;5291160;28;20546;-49
2023/10/02 09:25:12;;;;;;;12.40;4.72;;;24.50;96.10;;;25.47;86.60;101484.84;5293336;28;20552;-48
2023/10/02 09:27:56;;;;;;;14.18;4.70;;;24.60;96.10;;;25.42;86.00;101485.78;5294361;28;20365;-47
2023/10/02 09:30:37;;;;;;;13.38;4.72;;;24.60;95.70;;;25.44;86.17;101477.78;5305289;27;20518;-47
2023/10/02 09:33:14;;;;;;;13.05;4.65;;;24.60;95.70;;;25.39;85.30;101475.16;5286341;28;20040;-47
2023/10/02 09:35:50;;;;;;;11.85;4.68;;;24.60;95.30;;;25.45;85.99;101466.19;5285119;28;20135;-46
2023/10/02 09:38:24;;;;;;;12.57;4.65;;;24.60;95.60;;;25.49;84.94;101467.88;5292340;28;20134;-48
2023/10/02 09:40:58;;;;;;;13.43;4.80;;;24.70;95.10;;;25.48;84.87;101465.25;5298297;27;20051;-47
2023/10/02 09:43:32;;;;;;;11.85;4.63;;;24.70;95.10;;;25.50;85.79;101467.00;5303885;27;20506;-51
2023/10/02 09:46:15;;;;;;;13.45;5.45;;;24.70;95.40;;;25.54;86.25;101462.47;5293400;27;20043;-50
2023/10/02 09:49:03;;;;;;;12.32;4.55;;;24.70;95.60;;;25.62;86.19;101466.75;5301028;27;20046;-48
2023/10/02 09:52:09;;;;;;;10.80;4.20;;;24.80;95.60;;;25.75;85.83;101459.47;5298801;27;20051;-49
2023/10/02 09:55:03;;;;;;;11.73;5.07;;;24.90;95.40;;;25.77;85.53;101455.00;5296475;27;20103;-48
2023/10/02 09:57:48;;;;;;;12.82;4.80;;;24.90;95.50;;;25.82;86.17;101446.88;5305882;27;20040;-49
2023/10/02 10:00:40;;;;;;;10.07;3.92;;;25.00;95.40;;;25.90;86.60;101453.00;5300588;27;20164;-48
2023/10/02 10:03:31;;;;;;;11.85;4.50;;;25.10;95.60;;;26.00;86.41;101449.22;5300837;27;20035;-49
2023/10/02 10:06:27;;;;;;;11.38;4.60;;;25.20;95.60;;;25.91;85.25;101442.28;5300158;27;20043;-49
2023/10/02 10:09:34;;;;;;;14.25;5.28;;;25.20;95.00;;;25.94;85.39;101438.66;5297466;27;20063;-49
2023/10/02 10:12:32;;;;;;;12.93;4.78;;;25.20;95.00;;;26.00;86.05;101438.53;5293985;27;20040;-49
2023/10/02 10:15:25;;;;;;;11.55;4.38;;;25.20;95.20;;;25.98;86.03;101424.34;5291990;27;20047;-48
2023/10/02 10:17:58;;;;;;;13.27;5.20;;;25.20;95.20;;;26.04;86.57;101424.22;5294545;27;20052;-47
2023/10/02 10:20:30;;;;;;;12.65;4.38;;;25.30;95.40;;;26.14;87.10;101425.78;5298786;27;20073;-48
2023/10/02 10:23:31;;;;;;;12.90;4.60;;;25.40;95.60;;;26.30;86.10;101430.84;5297746;27;20622;-49
2023/10/02 10:26:08;;;;;;;12.20;4.57;;;25.40;95.30;;;26.42;85.20;101425.28;5291759;27;20514;-50
2023/10/02 10:28:51;;;;;;;10.70;4.15;;;25.60;95.00;;;26.58;85.06;101423.16;5298413;27;20047;-49
2023/10/02 10:31:33;;;;;;;10.40;3.95;;;25.70;94.90;;;26.72;85.12;101416.59;5290301;27;20043;-50
2023/10/02 10:34:06;;;;;;;11.45;4.15;;;25.80;94.90;;;26.78;84.26;101419.13;5302908;27;20049;-50
2023/10/02 10:36:46;;;;;;;10.75;4.43;;;25.90;94.60;;;26.84;84.00;101411.88;5293333;27;20078;-50
2023/10/02 10:40:40;;;;;;;12.95;4.85;;;26.00;94.40;;;26.80;83.47;101400.41;5309277;27;20135;-50
2023/10/02 10:43:00;;;;;;;12.75;4.63;;;26.00;94.10;;;26.91;83.54;101408.16;5292774;27;20095;-50
2023/10/02 10:45:33;;;;;;;13.18;4.43;;;26.00;94.10;;;27.05;83.72;101408.72;5289190;27;20045;-50
2023/10/02 10:48:18;;;;;;;12.43;4.75;;;26.20;94.20;;;27.12;83.69;101405.00;5303529;27;20054;-50
2023/10/02 10:50:59;;;;;;;12.65;4.78;;;26.30;94.20;;;27.01;81.41;101407.03;5291525;27;20052;-50
2023/10/02 10:53:32;;;;;;;14.35;5.32;;;26.20;93.10;;;26.96;82.70;101392.88;5300118;27;20032;-50
2023/10/02 10:56:16;;;;;;;14.18;5.45;;;26.20;93.60;;;26.94;82.79;101400.94;5291954;27;20049;-50
2023/10/02 10:58:58;;;;;;;14.40;5.38;;;26.20;93.60;;;26.95;83.22;101394.69;5290292;27;20445;-50
2023/10/02 11:01:34;;;;;;;13.60;4.75;;;26.20;93.70;;;26.89;82.97;101404.66;5291438;27;20043;-48
2023/10/02 11:04:07;;;;;;;15.90;5.68;;;26.20;93.50;;;26.91;82.98;101392.09;5288206;27;20036;-49